sensor_id;sensor_type;location;lat;lon;timestamp;P1;durP1;ratioP1;P2;durP2;ratioP2
26151;SDS011;13907;53.154;8.202;2022-08-21T00:00:24;4.10;;;1.35;;
26151;SDS011;13907;53.154;8.202;2022-08-21T00:02:53;2.00;;;1.63;;
26151;SDS011;13907;53.154;8.202;2022-08-21T00:05:20;1.58;;;1.30;;
26151;SDS011;13907;53.154;8.202;2022-08-21T00:07:47;1.08;;;1.00;;
26151;SDS011;13907;53.154;8.202;2022-08-21T00:10:15;3.05;;;2.15;;
26151;SDS011;13907;53.154;8.202;2022-08-21T00:12:43;1.88;;;1.10;;
26151;SDS011;13907;53.154;8.202;2022-08-21T00:15:11;1.48;;;1.23;;
26151;SDS011;13907;53.154;8.202;2022-08-21T00:17:40;1.80;;;1.13;;
26151;SDS011;13907;53.154;8.202;2022-08-21T00:20:08;1.83;;;1.17;;
26151;SDS011;13907;53.154;8.202;2022-08-21T00:22:35;2.08;;;1.38;;
26151;SDS011;13907;53.154;8.202;2022-08-21T00:25:03;2.47;;;1.33;;
26151;SDS011;13907;53.154;8.202;2022-08-21T00:27:30;2.47;;;0.95;;
26151;SDS011;13907;53.154;8.202;2022-08-21T00:29:57;3.13;;;1.33;;
26151;SDS011;13907;53.154;8.202;2022-08-21T00:32:25;1.20;;;0.90;;
26151;SDS011;13907;53.154;8.202;2022-08-21T00:34:54;2.00;;;1.27;;
26151;SDS011;13907;53.154;8.202;2022-08-21T00:37:22;2.90;;;1.70;;
26151;SDS011;13907;53.154;8.202;2022-08-21T00:39:49;1.58;;;1.20;;
26151;SDS011;13907;53.154;8.202;2022-08-21T00:42:17;2.78;;;1.10;;
26151;SDS011;13907;53.154;8.202;2022-08-21T00:44:45;2.75;;;1.38;;
26151;SDS011;13907;53.154;8.202;2022-08-21T00:47:13;1.88;;;0.90;;
26151;SDS011;13907;53.154;8.202;2022-08-21T00:49:40;2.45;;;1.05;;
26151;SDS011;13907;53.154;8.202;2022-08-21T00:52:09;1.17;;;1.00;;
26151;SDS011;13907;53.154;8.202;2022-08-21T00:54:37;1.15;;;1.05;;
26151;SDS011;13907;53.154;8.202;2022-08-21T00:57:07;1.00;;;0.82;;
26151;SDS011;13907;53.154;8.202;2022-08-21T00:59:36;2.75;;;1.08;;
26151;SDS011;13907;53.154;8.202;2022-08-21T01:02:05;1.52;;;1.20;;
26151;SDS011;13907;53.154;8.202;2022-08-21T01:04:33;1.25;;;0.95;;
26151;SDS011;13907;53.154;8.202;2022-08-21T01:07:00;1.13;;;1.02;;
26151;SDS011;13907;53.154;8.202;2022-08-21T01:09:29;5.13;;;1.25;;
26151;SDS011;13907;53.154;8.202;2022-08-21T01:11:56;1.45;;;1.30;;
26151;SDS011;13907;53.154;8.202;2022-08-21T01:14:23;2.55;;;1.20;;
26151;SDS011;13907;53.154;8.202;2022-08-21T01:16:51;2.53;;;1.00;;
26151;SDS011;13907;53.154;8.202;2022-08-21T01:19:20;1.60;;;0.90;;
26151;SDS011;13907;53.154;8.202;2022-08-21T01:21:48;1.48;;;1.00;;
26151;SDS011;13907;53.154;8.202;2022-08-21T01:24:15;2.92;;;1.13;;
26151;SDS011;13907;53.154;8.202;2022-08-21T01:26:43;1.27;;;1.10;;
26151;SDS011;13907;53.154;8.202;2022-08-21T01:29:12;1.13;;;0.90;;
26151;SDS011;13907;53.154;8.202;2022-08-21T01:31:40;4.07;;;1.50;;
26151;SDS011;13907;53.154;8.202;2022-08-21T01:34:08;2.15;;;1.05;;
26151;SDS011;13907;53.154;8.202;2022-08-21T01:36:35;2.38;;;1.00;;
26151;SDS011;13907;53.154;8.202;2022-08-21T01:39:04;4.07;;;1.30;;
26151;SDS011;13907;53.154;8.202;2022-08-21T01:41:31;4.03;;;1.58;;
26151;SDS011;13907;53.154;8.202;2022-08-21T01:43:58;0.80;;;0.80;;
26151;SDS011;13907;53.154;8.202;2022-08-21T01:46:25;1.05;;;0.95;;
26151;SDS011;13907;53.154;8.202;2022-08-21T01:48:52;2.47;;;1.23;;
26151;SDS011;13907;53.154;8.202;2022-08-21T01:51:19;1.00;;;0.82;;
26151;SDS011;13907;53.154;8.202;2022-08-21T01:53:47;4.68;;;1.20;;
26151;SDS011;13907;53.154;8.202;2022-08-21T01:56:16;1.52;;;0.90;;
26151;SDS011;13907;53.154;8.202;2022-08-21T01:58:44;1.95;;;1.30;;
26151;SDS011;13907;53.154;8.202;2022-08-21T02:01:12;2.05;;;1.10;;
26151;SDS011;13907;53.154;8.202;2022-08-21T02:03:39;1.63;;;1.10;;
26151;SDS011;13907;53.154;8.202;2022-08-21T02:06:07;1.90;;;1.15;;
26151;SDS011;13907;53.154;8.202;2022-08-21T02:08:38;2.53;;;0.88;;
26151;SDS011;13907;53.154;8.202;2022-08-21T02:11:06;1.30;;;1.20;;
26151;SDS011;13907;53.154;8.202;2022-08-21T02:13:34;2.15;;;1.10;;
26151;SDS011;13907;53.154;8.202;2022-08-21T02:16:02;3.63;;;1.10;;
26151;SDS011;13907;53.154;8.202;2022-08-21T02:18:29;2.05;;;0.90;;
26151;SDS011;13907;53.154;8.202;2022-08-21T02:20:57;4.50;;;1.17;;
26151;SDS011;13907;53.154;8.202;2022-08-21T02:23:24;3.03;;;1.17;;
26151;SDS011;13907;53.154;8.202;2022-08-21T02:25:51;0.90;;;0.63;;
26151;SDS011;13907;53.154;8.202;2022-08-21T02:28:18;1.25;;;0.95;;
26151;SDS011;13907;53.154;8.202;2022-08-21T02:30:47;2.67;;;0.88;;
26151;SDS011;13907;53.154;8.202;2022-08-21T02:33:15;3.45;;;1.00;;
26151;SDS011;13907;53.154;8.202;2022-08-21T02:35:44;1.00;;;0.90;;
26151;SDS011;13907;53.154;8.202;2022-08-21T02:38:13;2.90;;;1.33;;
26151;SDS011;13907;53.154;8.202;2022-08-21T02:40:42;1.13;;;0.82;;
26151;SDS011;13907;53.154;8.202;2022-08-21T02:43:10;1.08;;;0.98;;
26151;SDS011;13907;53.154;8.202;2022-08-21T02:45:38;1.42;;;0.80;;
26151;SDS011;13907;53.154;8.202;2022-08-21T02:48:08;1.13;;;0.82;;
26151;SDS011;13907;53.154;8.202;2022-08-21T02:50:36;0.70;;;0.70;;
26151;SDS011;13907;53.154;8.202;2022-08-21T02:53:03;3.88;;;1.50;;
26151;SDS011;13907;53.154;8.202;2022-08-21T02:55:31;2.58;;;0.80;;
26151;SDS011;13907;53.154;8.202;2022-08-21T02:57:59;1.00;;;0.85;;
26151;SDS011;13907;53.154;8.202;2022-08-21T03:00:27;2.35;;;1.10;;
26151;SDS011;13907;53.154;8.202;2022-08-21T03:02:55;2.40;;;0.95;;
26151;SDS011;13907;53.154;8.202;2022-08-21T03:05:23;2.00;;;0.90;;
26151;SDS011;13907;53.154;8.202;2022-08-21T03:07:51;1.92;;;1.30;;
26151;SDS011;13907;53.154;8.202;2022-08-21T03:10:18;2.72;;;1.08;;
26151;SDS011;13907;53.154;8.202;2022-08-21T03:12:46;0.98;;;0.88;;
26151;SDS011;13907;53.154;8.202;2022-08-21T03:15:14;1.02;;;0.90;;
26151;SDS011;13907;53.154;8.202;2022-08-21T03:17:42;1.10;;;1.00;;
26151;SDS011;13907;53.154;8.202;2022-08-21T03:20:10;1.65;;;0.75;;
26151;SDS011;13907;53.154;8.202;2022-08-21T03:22:38;4.68;;;1.48;;
26151;SDS011;13907;53.154;8.202;2022-08-21T03:25:06;2.45;;;1.15;;
26151;SDS011;13907;53.154;8.202;2022-08-21T03:27:34;2.13;;;1.60;;
26151;SDS011;13907;53.154;8.202;2022-08-21T03:30:02;2.75;;;0.90;;
26151;SDS011;13907;53.154;8.202;2022-08-21T03:32:29;1.20;;;1.00;;
26151;SDS011;13907;53.154;8.202;2022-08-21T03:34:57;1.65;;;0.80;;
26151;SDS011;13907;53.154;8.202;2022-08-21T03:37:25;4.82;;;1.15;;
26151;SDS011;13907;53.154;8.202;2022-08-21T03:39:54;2.15;;;1.40;;
26151;SDS011;13907;53.154;8.202;2022-08-21T03:42:21;4.10;;;1.30;;
26151;SDS011;13907;53.154;8.202;2022-08-21T03:44:48;2.05;;;1.45;;
26151;SDS011;13907;53.154;8.202;2022-08-21T03:47:15;3.95;;;1.70;;
26151;SDS011;13907;53.154;8.202;2022-08-21T03:49:42;1.60;;;0.95;;
26151;SDS011;13907;53.154;8.202;2022-08-21T03:52:09;2.47;;;1.02;;
26151;SDS011;13907;53.154;8.202;2022-08-21T03:54:37;2.65;;;1.35;;
26151;SDS011;13907;53.154;8.202;2022-08-21T03:57:06;0.95;;;0.93;;
26151;SDS011;13907;53.154;8.202;2022-08-21T03:59:33;1.33;;;1.23;;
26151;SDS011;13907;53.154;8.202;2022-08-21T04:02:01;2.42;;;1.33;;
26151;SDS011;13907;53.154;8.202;2022-08-21T04:04:29;2.50;;;1.13;;
26151;SDS011;13907;53.154;8.202;2022-08-21T04:06:57;2.45;;;1.30;;
26151;SDS011;13907;53.154;8.202;2022-08-21T04:09:24;1.80;;;1.52;;
26151;SDS011;13907;53.154;8.202;2022-08-21T04:11:52;2.05;;;1.05;;
26151;SDS011;13907;53.154;8.202;2022-08-21T04:14:20;1.50;;;1.40;;
26151;SDS011;13907;53.154;8.202;2022-08-21T04:16:48;1.52;;;1.30;;
26151;SDS011;13907;53.154;8.202;2022-08-21T04:19:15;4.13;;;1.40;;
26151;SDS011;13907;53.154;8.202;2022-08-21T04:21:42;3.13;;;1.60;;
26151;SDS011;13907;53.154;8.202;2022-08-21T04:24:10;2.67;;;1.42;;
26151;SDS011;13907;53.154;8.202;2022-08-21T04:26:37;4.65;;;1.65;;
26151;SDS011;13907;53.154;8.202;2022-08-21T04:29:05;3.28;;;1.42;;
26151;SDS011;13907;53.154;8.202;2022-08-21T04:31:34;1.17;;;1.10;;
26151;SDS011;13907;53.154;8.202;2022-08-21T04:34:02;2.92;;;1.10;;
26151;SDS011;13907;53.154;8.202;2022-08-21T04:36:29;4.97;;;1.77;;
26151;SDS011;13907;53.154;8.202;2022-08-21T04:38:56;1.33;;;1.23;;
26151;SDS011;13907;53.154;8.202;2022-08-21T04:41:23;1.38;;;1.20;;
26151;SDS011;13907;53.154;8.202;2022-08-21T04:43:51;1.58;;;1.48;;
26151;SDS011;13907;53.154;8.202;2022-08-21T04:46:20;1.50;;;1.40;;
26151;SDS011;13907;53.154;8.202;2022-08-21T04:48:48;1.23;;;1.15;;
26151;SDS011;13907;53.154;8.202;2022-08-21T04:51:16;3.25;;;1.70;;
26151;SDS011;13907;53.154;8.202;2022-08-21T04:53:45;1.52;;;1.42;;
26151;SDS011;13907;53.154;8.202;2022-08-21T04:56:15;2.15;;;1.50;;
26151;SDS011;13907;53.154;8.202;2022-08-21T04:58:42;6.22;;;1.60;;
26151;SDS011;13907;53.154;8.202;2022-08-21T05:01:11;2.38;;;1.60;;
26151;SDS011;13907;53.154;8.202;2022-08-21T05:03:40;4.10;;;2.15;;
26151;SDS011;13907;53.154;8.202;2022-08-21T05:06:09;5.25;;;1.80;;
26151;SDS011;13907;53.154;8.202;2022-08-21T05:08:37;1.88;;;1.75;;
26151;SDS011;13907;53.154;8.202;2022-08-21T05:11:05;1.60;;;1.50;;
26151;SDS011;13907;53.154;8.202;2022-08-21T05:13:32;3.22;;;2.38;;
26151;SDS011;13907;53.154;8.202;2022-08-21T05:16:00;2.22;;;2.03;;
26151;SDS011;13907;53.154;8.202;2022-08-21T05:18:27;4.28;;;1.65;;
26151;SDS011;13907;53.154;8.202;2022-08-21T05:20:54;2.08;;;1.65;;
26151;SDS011;13907;53.154;8.202;2022-08-21T05:23:23;2.58;;;1.70;;
26151;SDS011;13907;53.154;8.202;2022-08-21T05:25:51;3.17;;;1.90;;
26151;SDS011;13907;53.154;8.202;2022-08-21T05:28:18;3.85;;;1.60;;
26151;SDS011;13907;53.154;8.202;2022-08-21T05:30:45;2.13;;;1.63;;
26151;SDS011;13907;53.154;8.202;2022-08-21T05:33:12;5.05;;;1.95;;
26151;SDS011;13907;53.154;8.202;2022-08-21T05:35:39;3.05;;;1.85;;
26151;SDS011;13907;53.154;8.202;2022-08-21T05:38:06;2.50;;;1.80;;
26151;SDS011;13907;53.154;8.202;2022-08-21T05:40:35;3.00;;;2.30;;
26151;SDS011;13907;53.154;8.202;2022-08-21T05:43:02;2.63;;;2.22;;
26151;SDS011;13907;53.154;8.202;2022-08-21T05:45:30;5.00;;;2.42;;
26151;SDS011;13907;53.154;8.202;2022-08-21T05:47:57;5.22;;;1.85;;
26151;SDS011;13907;53.154;8.202;2022-08-21T05:50:25;5.38;;;2.35;;
26151;SDS011;13907;53.154;8.202;2022-08-21T05:52:52;2.53;;;1.58;;
26151;SDS011;13907;53.154;8.202;2022-08-21T05:55:19;5.00;;;1.85;;
26151;SDS011;13907;53.154;8.202;2022-08-21T05:57:47;3.70;;;1.95;;
26151;SDS011;13907;53.154;8.202;2022-08-21T06:00:15;2.13;;;1.92;;
26151;SDS011;13907;53.154;8.202;2022-08-21T06:02:42;3.33;;;1.90;;
26151;SDS011;13907;53.154;8.202;2022-08-21T06:05:09;6.95;;;2.03;;
26151;SDS011;13907;53.154;8.202;2022-08-21T06:07:37;1.75;;;1.60;;
26151;SDS011;13907;53.154;8.202;2022-08-21T06:10:04;4.18;;;1.83;;
26151;SDS011;13907;53.154;8.202;2022-08-21T06:12:32;6.63;;;2.15;;
26151;SDS011;13907;53.154;8.202;2022-08-21T06:15:00;3.95;;;2.13;;
26151;SDS011;13907;53.154;8.202;2022-08-21T06:17:27;3.53;;;2.35;;
26151;SDS011;13907;53.154;8.202;2022-08-21T06:19:54;2.78;;;1.83;;
26151;SDS011;13907;53.154;8.202;2022-08-21T06:22:21;3.70;;;2.17;;
26151;SDS011;13907;53.154;8.202;2022-08-21T06:24:49;3.30;;;2.03;;
26151;SDS011;13907;53.154;8.202;2022-08-21T06:27:16;3.35;;;1.58;;
26151;SDS011;13907;53.154;8.202;2022-08-21T06:29:43;3.35;;;2.00;;
26151;SDS011;13907;53.154;8.202;2022-08-21T06:32:12;4.75;;;2.90;;
26151;SDS011;13907;53.154;8.202;2022-08-21T06:34:40;2.35;;;1.83;;
26151;SDS011;13907;53.154;8.202;2022-08-21T06:37:07;4.40;;;2.15;;
26151;SDS011;13907;53.154;8.202;2022-08-21T06:39:35;4.65;;;2.30;;
26151;SDS011;13907;53.154;8.202;2022-08-21T06:42:02;2.75;;;1.80;;
26151;SDS011;13907;53.154;8.202;2022-08-21T06:44:30;3.53;;;1.73;;
26151;SDS011;13907;53.154;8.202;2022-08-21T06:46:57;6.22;;;1.83;;
26151;SDS011;13907;53.154;8.202;2022-08-21T06:49:25;4.50;;;2.00;;
26151;SDS011;13907;53.154;8.202;2022-08-21T06:51:52;5.43;;;1.60;;
26151;SDS011;13907;53.154;8.202;2022-08-21T06:54:19;5.78;;;1.88;;
26151;SDS011;13907;53.154;8.202;2022-08-21T06:56:46;4.68;;;1.67;;
26151;SDS011;13907;53.154;8.202;2022-08-21T06:59:14;7.05;;;2.28;;
26151;SDS011;13907;53.154;8.202;2022-08-21T07:01:41;2.05;;;1.77;;
26151;SDS011;13907;53.154;8.202;2022-08-21T07:04:08;6.93;;;1.70;;
26151;SDS011;13907;53.154;8.202;2022-08-21T07:06:36;2.40;;;1.02;;
26151;SDS011;13907;53.154;8.202;2022-08-21T07:09:03;1.92;;;1.60;;
26151;SDS011;13907;53.154;8.202;2022-08-21T07:11:30;2.08;;;1.05;;
26151;SDS011;13907;53.154;8.202;2022-08-21T07:13:58;4.70;;;1.58;;
26151;SDS011;13907;53.154;8.202;2022-08-21T07:16:25;3.60;;;1.60;;
26151;SDS011;13907;53.154;8.202;2022-08-21T07:18:52;4.38;;;1.45;;
26151;SDS011;13907;53.154;8.202;2022-08-21T07:21:19;3.90;;;1.70;;
26151;SDS011;13907;53.154;8.202;2022-08-21T07:23:48;2.42;;;1.20;;
26151;SDS011;13907;53.154;8.202;2022-08-21T07:26:17;6.05;;;1.88;;
26151;SDS011;13907;53.154;8.202;2022-08-21T07:28:45;2.25;;;1.27;;
26151;SDS011;13907;53.154;8.202;2022-08-21T07:31:13;2.38;;;2.08;;
26151;SDS011;13907;53.154;8.202;2022-08-21T07:33:40;5.68;;;2.22;;
26151;SDS011;13907;53.154;8.202;2022-08-21T07:36:08;1.77;;;1.27;;
26151;SDS011;13907;53.154;8.202;2022-08-21T07:38:35;1.42;;;0.98;;
26151;SDS011;13907;53.154;8.202;2022-08-21T07:41:06;2.65;;;1.58;;
26151;SDS011;13907;53.154;8.202;2022-08-21T07:43:33;3.90;;;1.35;;
26151;SDS011;13907;53.154;8.202;2022-08-21T07:46:00;3.50;;;1.63;;
26151;SDS011;13907;53.154;8.202;2022-08-21T07:48:27;5.55;;;1.52;;
26151;SDS011;13907;53.154;8.202;2022-08-21T07:50:54;1.65;;;1.10;;
26151;SDS011;13907;53.154;8.202;2022-08-21T07:53:22;3.78;;;1.38;;
26151;SDS011;13907;53.154;8.202;2022-08-21T07:55:49;3.55;;;1.52;;
26151;SDS011;13907;53.154;8.202;2022-08-21T07:58:17;3.00;;;1.25;;
26151;SDS011;13907;53.154;8.202;2022-08-21T08:00:44;4.07;;;1.63;;
26151;SDS011;13907;53.154;8.202;2022-08-21T08:03:11;2.80;;;1.50;;
26151;SDS011;13907;53.154;8.202;2022-08-21T08:05:38;2.65;;;0.90;;
26151;SDS011;13907;53.154;8.202;2022-08-21T08:08:06;1.52;;;0.88;;
26151;SDS011;13907;53.154;8.202;2022-08-21T08:10:33;3.65;;;1.50;;
26151;SDS011;13907;53.154;8.202;2022-08-21T08:13:00;2.47;;;0.93;;
26151;SDS011;13907;53.154;8.202;2022-08-21T08:15:29;4.07;;;1.05;;
26151;SDS011;13907;53.154;8.202;2022-08-21T08:17:56;1.10;;;0.82;;
26151;SDS011;13907;53.154;8.202;2022-08-21T08:20:24;2.97;;;0.77;;
26151;SDS011;13907;53.154;8.202;2022-08-21T08:22:52;3.35;;;1.00;;
26151;SDS011;13907;53.154;8.202;2022-08-21T08:25:19;3.65;;;0.90;;
26151;SDS011;13907;53.154;8.202;2022-08-21T08:27:47;1.20;;;0.95;;
26151;SDS011;13907;53.154;8.202;2022-08-21T08:30:16;3.80;;;0.60;;
26151;SDS011;13907;53.154;8.202;2022-08-21T08:32:44;1.50;;;0.75;;
26151;SDS011;13907;53.154;8.202;2022-08-21T08:35:12;1.25;;;0.50;;
26151;SDS011;13907;53.154;8.202;2022-08-21T08:37:39;5.18;;;0.90;;
26151;SDS011;13907;53.154;8.202;2022-08-21T08:40:09;4.88;;;1.05;;
26151;SDS011;13907;53.154;8.202;2022-08-21T08:42:37;1.90;;;1.00;;
26151;SDS011;13907;53.154;8.202;2022-08-21T08:45:05;2.15;;;1.13;;
26151;SDS011;13907;53.154;8.202;2022-08-21T08:47:35;4.75;;;1.15;;
26151;SDS011;13907;53.154;8.202;2022-08-21T11:14:55;3.07;;;0.83;;
26151;SDS011;13907;53.154;8.202;2022-08-21T11:17:24;2.28;;;0.55;;
26151;SDS011;13907;53.154;8.202;2022-08-21T11:19:56;0.98;;;0.73;;
26151;SDS011;13907;53.154;8.202;2022-08-21T11:22:26;1.38;;;0.60;;
26151;SDS011;13907;53.154;8.202;2022-08-21T11:24:56;3.53;;;0.80;;
26151;SDS011;13907;53.154;8.202;2022-08-21T11:27:25;0.95;;;0.57;;
26151;SDS011;13907;53.154;8.202;2022-08-21T11:29:55;5.03;;;0.98;;
26151;SDS011;13907;53.154;8.202;2022-08-21T11:32:32;0.77;;;0.65;;
26151;SDS011;13907;53.154;8.202;2022-08-21T11:35:04;0.65;;;0.60;;
26151;SDS011;13907;53.154;8.202;2022-08-21T11:37:40;0.70;;;0.57;;
26151;SDS011;13907;53.154;8.202;2022-08-21T11:40:11;1.23;;;0.60;;
26151;SDS011;13907;53.154;8.202;2022-08-21T11:42:41;3.42;;;0.80;;
26151;SDS011;13907;53.154;8.202;2022-08-21T11:45:17;1.58;;;0.43;;
26151;SDS011;13907;53.154;8.202;2022-08-21T11:47:50;4.13;;;1.17;;
26151;SDS011;13907;53.154;8.202;2022-08-21T11:50:21;1.38;;;0.40;;
26151;SDS011;13907;53.154;8.202;2022-08-21T11:52:51;2.35;;;0.73;;
26151;SDS011;13907;53.154;8.202;2022-08-21T11:55:19;2.28;;;0.77;;
26151;SDS011;13907;53.154;8.202;2022-08-21T11:57:50;0.50;;;0.50;;
26151;SDS011;13907;53.154;8.202;2022-08-21T12:00:22;1.52;;;0.85;;
26151;SDS011;13907;53.154;8.202;2022-08-21T12:02:51;1.05;;;0.40;;
26151;SDS011;13907;53.154;8.202;2022-08-21T12:05:23;1.55;;;0.68;;
26151;SDS011;13907;53.154;8.202;2022-08-21T12:07:59;2.10;;;0.75;;
26151;SDS011;13907;53.154;8.202;2022-08-21T12:10:30;2.58;;;0.60;;
26151;SDS011;13907;53.154;8.202;2022-08-21T12:13:05;0.57;;;0.55;;
26151;SDS011;13907;53.154;8.202;2022-08-21T12:15:34;1.40;;;0.70;;
26151;SDS011;13907;53.154;8.202;2022-08-21T12:18:02;5.93;;;1.10;;
26151;SDS011;13907;53.154;8.202;2022-08-21T12:20:41;2.72;;;0.75;;
26151;SDS011;13907;53.154;8.202;2022-08-21T12:23:16;2.65;;;0.50;;
26151;SDS011;13907;53.154;8.202;2022-08-21T12:25:45;2.72;;;0.70;;
26151;SDS011;13907;53.154;8.202;2022-08-21T12:28:14;0.68;;;0.55;;
26151;SDS011;13907;53.154;8.202;2022-08-21T12:30:44;1.05;;;0.55;;
26151;SDS011;13907;53.154;8.202;2022-08-21T12:33:20;4.15;;;0.88;;
26151;SDS011;13907;53.154;8.202;2022-08-21T12:35:48;1.85;;;0.57;;
26151;SDS011;13907;53.154;8.202;2022-08-21T12:38:17;1.30;;;0.52;;
26151;SDS011;13907;53.154;8.202;2022-08-21T12:40:46;1.13;;;0.45;;
26151;SDS011;13907;53.154;8.202;2022-08-21T12:43:15;1.35;;;0.57;;
26151;SDS011;13907;53.154;8.202;2022-08-21T12:45:46;2.63;;;0.90;;
26151;SDS011;13907;53.154;8.202;2022-08-21T12:48:14;0.80;;;0.50;;
26151;SDS011;13907;53.154;8.202;2022-08-21T12:50:44;2.03;;;0.40;;
26151;SDS011;13907;53.154;8.202;2022-08-21T12:53:12;4.00;;;0.93;;
26151;SDS011;13907;53.154;8.202;2022-08-21T12:55:42;1.15;;;0.60;;
26151;SDS011;13907;53.154;8.202;2022-08-21T12:58:16;0.98;;;0.55;;
26151;SDS011;13907;53.154;8.202;2022-08-21T13:00:48;2.72;;;0.60;;
26151;SDS011;13907;53.154;8.202;2022-08-21T13:03:16;1.17;;;0.73;;
26151;SDS011;13907;53.154;8.202;2022-08-21T13:05:43;2.20;;;0.60;;
26151;SDS011;13907;53.154;8.202;2022-08-21T13:08:11;3.67;;;0.85;;
26151;SDS011;13907;53.154;8.202;2022-08-21T13:10:40;3.03;;;0.50;;
26151;SDS011;13907;53.154;8.202;2022-08-21T13:13:08;0.45;;;0.30;;
26151;SDS011;13907;53.154;8.202;2022-08-21T13:15:37;2.53;;;0.35;;
26151;SDS011;13907;53.154;8.202;2022-08-21T13:18:06;2.15;;;0.63;;
26151;SDS011;13907;53.154;8.202;2022-08-21T13:20:34;0.85;;;0.38;;
26151;SDS011;13907;53.154;8.202;2022-08-21T13:23:03;1.42;;;0.55;;
26151;SDS011;13907;53.154;8.202;2022-08-21T13:25:34;2.00;;;0.63;;
26151;SDS011;13907;53.154;8.202;2022-08-21T13:28:05;1.95;;;0.95;;
26151;SDS011;13907;53.154;8.202;2022-08-21T13:30:32;1.45;;;0.52;;
26151;SDS011;13907;53.154;8.202;2022-08-21T13:33:01;1.45;;;0.85;;
26151;SDS011;13907;53.154;8.202;2022-08-21T13:35:35;0.52;;;0.35;;
26151;SDS011;13907;53.154;8.202;2022-08-21T13:38:03;2.22;;;0.60;;
26151;SDS011;13907;53.154;8.202;2022-08-21T13:40:32;1.02;;;0.68;;
26151;SDS011;13907;53.154;8.202;2022-08-21T13:43:09;2.60;;;0.60;;
26151;SDS011;13907;53.154;8.202;2022-08-21T13:45:37;1.75;;;0.65;;
26151;SDS011;13907;53.154;8.202;2022-08-21T13:48:04;1.75;;;0.47;;
26151;SDS011;13907;53.154;8.202;2022-08-21T13:50:33;0.90;;;0.40;;
26151;SDS011;13907;53.154;8.202;2022-08-21T13:53:02;3.45;;;0.70;;
26151;SDS011;13907;53.154;8.202;2022-08-21T13:55:34;0.73;;;0.40;;
26151;SDS011;13907;53.154;8.202;2022-08-21T13:58:03;0.70;;;0.40;;
26151;SDS011;13907;53.154;8.202;2022-08-21T14:00:31;3.20;;;0.90;;
26151;SDS011;13907;53.154;8.202;2022-08-21T14:03:01;3.95;;;0.60;;
26151;SDS011;13907;53.154;8.202;2022-08-21T14:05:29;0.45;;;0.35;;
26151;SDS011;13907;53.154;8.202;2022-08-21T14:08:00;1.10;;;0.70;;
26151;SDS011;13907;53.154;8.202;2022-08-21T14:10:28;3.10;;;0.30;;
26151;SDS011;13907;53.154;8.202;2022-08-21T14:12:56;0.85;;;0.47;;
26151;SDS011;13907;53.154;8.202;2022-08-21T14:15:25;1.15;;;0.40;;
26151;SDS011;13907;53.154;8.202;2022-08-21T14:17:53;1.23;;;0.43;;
26151;SDS011;13907;53.154;8.202;2022-08-21T14:20:28;1.48;;;0.70;;
26151;SDS011;13907;53.154;8.202;2022-08-21T14:22:55;0.47;;;0.45;;
26151;SDS011;13907;53.154;8.202;2022-08-21T14:25:36;0.70;;;0.40;;
26151;SDS011;13907;53.154;8.202;2022-08-21T14:28:07;0.88;;;0.40;;
26151;SDS011;13907;53.154;8.202;2022-08-21T14:30:38;1.75;;;0.40;;
26151;SDS011;13907;53.154;8.202;2022-08-21T14:33:07;2.72;;;0.47;;
26151;SDS011;13907;53.154;8.202;2022-08-21T14:35:36;0.32;;;0.30;;
26151;SDS011;13907;53.154;8.202;2022-08-21T14:38:10;1.23;;;0.55;;
26151;SDS011;13907;53.154;8.202;2022-08-21T14:40:39;0.95;;;0.50;;
26151;SDS011;13907;53.154;8.202;2022-08-21T14:43:06;0.50;;;0.40;;
26151;SDS011;13907;53.154;8.202;2022-08-21T14:45:34;0.90;;;0.35;;
26151;SDS011;13907;53.154;8.202;2022-08-21T14:48:06;0.98;;;0.80;;
26151;SDS011;13907;53.154;8.202;2022-08-21T14:50:33;1.50;;;0.60;;
26151;SDS011;13907;53.154;8.202;2022-08-21T14:53:00;1.98;;;0.45;;
26151;SDS011;13907;53.154;8.202;2022-08-21T14:55:28;0.30;;;0.30;;
26151;SDS011;13907;53.154;8.202;2022-08-21T14:57:56;1.40;;;0.45;;
26151;SDS011;13907;53.154;8.202;2022-08-21T15:00:24;0.70;;;0.50;;
26151;SDS011;13907;53.154;8.202;2022-08-21T15:02:51;2.83;;;0.75;;
26151;SDS011;13907;53.154;8.202;2022-08-21T15:05:19;0.43;;;0.20;;
26151;SDS011;13907;53.154;8.202;2022-08-21T15:07:46;1.15;;;0.30;;
26151;SDS011;13907;53.154;8.202;2022-08-21T15:10:13;2.33;;;0.45;;
26151;SDS011;13907;53.154;8.202;2022-08-21T15:12:40;1.45;;;0.32;;
26151;SDS011;13907;53.154;8.202;2022-08-21T15:15:09;0.75;;;0.40;;
26151;SDS011;13907;53.154;8.202;2022-08-21T15:17:36;1.27;;;0.60;;
26151;SDS011;13907;53.154;8.202;2022-08-21T15:20:03;0.30;;;0.30;;
26151;SDS011;13907;53.154;8.202;2022-08-21T15:22:31;1.08;;;0.30;;
26151;SDS011;13907;53.154;8.202;2022-08-21T15:24:59;0.95;;;0.40;;
26151;SDS011;13907;53.154;8.202;2022-08-21T15:27:27;0.50;;;0.30;;
26151;SDS011;13907;53.154;8.202;2022-08-21T15:29:54;1.17;;;0.57;;
26151;SDS011;13907;53.154;8.202;2022-08-21T15:32:24;0.90;;;0.30;;
26151;SDS011;13907;53.154;8.202;2022-08-21T15:34:52;1.00;;;0.38;;
26151;SDS011;13907;53.154;8.202;2022-08-21T15:37:20;2.70;;;0.35;;
26151;SDS011;13907;53.154;8.202;2022-08-21T15:39:47;0.38;;;0.30;;
26151;SDS011;13907;53.154;8.202;2022-08-21T15:42:15;0.47;;;0.40;;
26151;SDS011;13907;53.154;8.202;2022-08-21T15:44:42;0.40;;;0.40;;
26151;SDS011;13907;53.154;8.202;2022-08-21T15:47:11;0.90;;;0.40;;
26151;SDS011;13907;53.154;8.202;2022-08-21T15:49:40;0.90;;;0.30;;
26151;SDS011;13907;53.154;8.202;2022-08-21T15:52:09;1.98;;;0.40;;
26151;SDS011;13907;53.154;8.202;2022-08-21T15:54:37;1.58;;;0.55;;
26151;SDS011;13907;53.154;8.202;2022-08-21T15:57:04;3.83;;;0.55;;
26151;SDS011;13907;53.154;8.202;2022-08-21T15:59:32;2.13;;;0.40;;
26151;SDS011;13907;53.154;8.202;2022-08-21T16:02:05;1.15;;;0.50;;
26151;SDS011;13907;53.154;8.202;2022-08-21T16:04:33;2.15;;;0.40;;
26151;SDS011;13907;53.154;8.202;2022-08-21T16:07:01;1.58;;;0.50;;
26151;SDS011;13907;53.154;8.202;2022-08-21T16:09:29;1.92;;;0.70;;
26151;SDS011;13907;53.154;8.202;2022-08-21T16:11:56;0.77;;;0.40;;
26151;SDS011;13907;53.154;8.202;2022-08-21T16:14:23;2.60;;;0.77;;
26151;SDS011;13907;53.154;8.202;2022-08-21T16:16:50;0.40;;;0.40;;
26151;SDS011;13907;53.154;8.202;2022-08-21T16:19:18;3.15;;;0.73;;
26151;SDS011;13907;53.154;8.202;2022-08-21T16:21:45;3.45;;;1.17;;
26151;SDS011;13907;53.154;8.202;2022-08-21T16:24:14;0.82;;;0.50;;
26151;SDS011;13907;53.154;8.202;2022-08-21T16:26:41;2.60;;;0.65;;
26151;SDS011;13907;53.154;8.202;2022-08-21T16:29:08;2.28;;;0.63;;
26151;SDS011;13907;53.154;8.202;2022-08-21T16:31:36;5.47;;;0.70;;
26151;SDS011;13907;53.154;8.202;2022-08-21T16:34:03;1.38;;;0.80;;
26151;SDS011;13907;53.154;8.202;2022-08-21T16:36:30;1.20;;;0.77;;
26151;SDS011;13907;53.154;8.202;2022-08-21T16:38:57;3.17;;;0.70;;
26151;SDS011;13907;53.154;8.202;2022-08-21T16:41:27;2.00;;;0.63;;
26151;SDS011;13907;53.154;8.202;2022-08-21T16:43:55;0.90;;;0.63;;
26151;SDS011;13907;53.154;8.202;2022-08-21T16:46:22;1.02;;;0.60;;
26151;SDS011;13907;53.154;8.202;2022-08-21T16:48:50;2.92;;;0.82;;
26151;SDS011;13907;53.154;8.202;2022-08-21T16:51:17;2.28;;;0.82;;
26151;SDS011;13907;53.154;8.202;2022-08-21T16:53:44;0.88;;;0.60;;
26151;SDS011;13907;53.154;8.202;2022-08-21T16:56:12;2.92;;;0.70;;
26151;SDS011;13907;53.154;8.202;2022-08-21T16:58:41;3.78;;;0.63;;
26151;SDS011;13907;53.154;8.202;2022-08-21T17:01:10;2.40;;;0.70;;
26151;SDS011;13907;53.154;8.202;2022-08-21T17:03:39;1.42;;;0.60;;
26151;SDS011;13907;53.154;8.202;2022-08-21T17:06:07;2.28;;;0.90;;
26151;SDS011;13907;53.154;8.202;2022-08-21T17:08:35;2.90;;;0.60;;
26151;SDS011;13907;53.154;8.202;2022-08-21T17:11:02;2.47;;;0.95;;
26151;SDS011;13907;53.154;8.202;2022-08-21T17:13:31;0.98;;;0.73;;
26151;SDS011;13907;53.154;8.202;2022-08-21T17:16:00;2.38;;;0.88;;
26151;SDS011;13907;53.154;8.202;2022-08-21T17:18:27;2.05;;;0.90;;